New Century — A8EL5 — position and weather

sailwx.info

Track history (hours):
 
Tides and Currents Weather Stations Pressure Air Temp Water Temp Dewpoint Dewpoint Depression Visibility Wind Speed Wind Dir Waves Ship Positions

New Century

Last reported at 2018-Jan-26 19:12 UTC. Time now 2018-Feb-19 22:09 UTC.
Position N 01°15' E 103°23'.
Warning: this ship's position is 24 days out of date.

Length 330 m; draft 11 m.

Type: Tanker. MMSI: 636012275.

Date/timePositionNaut miles runAvg speedWind from/ knotsBaromVisibWave heightAir tempDewpointWater temp
2018-Jan-26 19:12N 01°15' E 103°23'314.0
2018-Jan-26 19:00N 01°14' E 103°25'714.2
2018-Jan-26 18:30N 01°12' E 103°32'713.5
2018-Jan-26 17:58N 01°11' E 103°39'611.9
2018-Jan-26 17:30N 01°08' E 103°44'712.7
2018-Jan-26 16:56N 01°11' E 103°50'510.0
2018-Jan-26 16:29N 01°14' E 103°54'1 2.2
2018-Jan-26 16:00N 01°15' E 103°55'0 0.3
2018-Jan-26 15:21N 01°15' E 103°54'0 0.0
2018-Jan-26 14:57N 01°15' E 103°54'0 0.0
2018-Jan-26 13:36N 01°15' E 103°54'0 0.1
2018-Jan-26 13:30N 01°15' E 103°54'0 0.1
2018-Jan-26 12:57N 01°15' E 103°55'0 0.1
2018-Jan-26 12:30N 01°15' E 103°54'0 0.0
2018-Jan-26 11:48N 01°15' E 103°54'0 0.1
2018-Jan-26 11:15N 01°15' E 103°55'0 0.0
2018-Jan-26 10:57N 01°15' E 103°55'0 0.0
2018-Jan-26 09:06N 01°15' E 103°54'0 0.0
2018-Jan-26 08:57N 01°15' E 103°54'0 0.1
2018-Jan-26 05:29N 01°15' E 103°55'0 0.0
2018-Jan-26 04:44N 01°15' E 103°55'0 0.2
2018-Jan-26 04:23N 01°15' E 103°55'0 0.2
2018-Jan-26 03:56N 01°15' E 103°55'0 0.2
2018-Jan-26 03:17N 01°15' E 103°55'0 0.0
2018-Jan-26 02:47N 01°15' E 103°55'0 0.0
2018-Jan-26 01:44N 01°15' E 103°55'0 0.2
2018-Jan-26 01:17N 01°15' E 103°55'0 0.2
2018-Jan-26 00:53N 01°15' E 103°55'0 0.1
2018-Jan-25 23:44N 01°15' E 103°55'0 0.0
2018-Jan-25 22:38N 01°15' E 103°55'0 0.0
2018-Jan-25 21:35N 01°15' E 103°55'0 0.0
2018-Jan-25 21:29N 01°15' E 103°55'0 0.0
2018-Jan-25 20:53N 01°15' E 103°55'0 0.1
2018-Jan-25 20:26N 01°15' E 103°54'0 0.0
2018-Jan-25 19:47N 01°15' E 103°54'0 0.0
2018-Jan-25 19:26N 01°15' E 103°54'0 0.0
2018-Jan-25 18:50N 01°15' E 103°54'0 0.0
2018-Jan-25 18:29N 01°15' E 103°54'0 0.0
2018-Jan-25 17:56N 01°15' E 103°54'0 0.0
2018-Jan-25 17:14N 01°15' E 103°54'0 0.0
2018-Jan-25 16:53N 01°15' E 103°54'0 0.1
2018-Jan-25 16:17N 01°15' E 103°55'0 0.0
2018-Jan-25 15:56N 01°15' E 103°55'0 0.0
2018-Jan-25 14:56N 01°15' E 103°55'0 0.0
2018-Jan-25 14:23N 01°15' E 103°55'0 0.0
2018-Jan-25 12:38N 01°15' E 103°54'0 0.0
2018-Jan-25 12:17N 01°15' E 103°54'0 0.0
2018-Jan-25 11:59N 01°15' E 103°54'0 0.0
2018-Jan-25 10:53N 01°15' E 103°54'0 0.1
2018-Jan-25 10:26N 01°15' E 103°54'0 0.2
2018-Jan-25 09:56N 01°15' E 103°54'0 0.1
2018-Jan-25 09:29N 01°15' E 103°54'0 0.1
2018-Jan-25 08:59N 01°15' E 103°54'0 0.2
2018-Jan-25 08:29N 01°15' E 103°55'0 0.0
2018-Jan-25 07:56N 01°15' E 103°55'0 0.2
2018-Jan-25 07:29N 01°15' E 103°54'0 0.0
2018-Jan-25 06:59N 01°15' E 103°54'0 0.0
2018-Jan-25 06:26N 01°15' E 103°54'0 0.1
2018-Jan-25 05:59N 01°15' E 103°54'0 0.1
2018-Jan-25 05:23N 01°15' E 103°54'0 0.1
2018-Jan-25 04:59N 01°15' E 103°54'0 0.0
2018-Jan-25 04:26N 01°15' E 103°54'0 0.0
2018-Jan-25 03:59N 01°15' E 103°54'0 0.0
2018-Jan-25 03:29N 01°15' E 103°54'0 0.1
2018-Jan-25 02:56N 01°15' E 103°55'0 0.0
2018-Jan-25 02:29N 01°15' E 103°55'0 0.1
2018-Jan-25 02:00N 01°15' E 103°55'0 0.0
2018-Jan-25 01:23N 01°15' E 103°55'0 0.0
2018-Jan-25 00:59N 01°15' E 103°55'0 0.1
2018-Jan-25 00:29N 01°15' E 103°55'0 0.7
2018-Jan-25 00:00N 01°14' E 103°55'3 5.7
2018-Jan-24 23:30N 01°15' E 103°57'2 3.6
2018-Jan-24 23:01N 01°16' E 103°59'2 4.8
2018-Jan-24 22:30N 01°16' E 104°02'4 8.1
2018-Jan-24 22:00N 01°16' E 104°06'4 8.9
2018-Jan-24 21:30N 01°17' E 104°10'5 9.4
2018-Jan-24 20:59N 01°17' E 104°15'8 9.8
2018-Jan-24 20:09N 01°21' E 104°22'210.9
2018-Jan-24 19:57N 01°22' E 104°24'  
2018-Jan-18 22:27N 21°56' E 121°15'511.4
2018-Jan-18 22:00N 22°01' E 121°17'612.2
2018-Jan-18 21:29N 22°06' E 121°20'611.6
2018-Jan-18 20:57N 22°12' E 121°23'511.6
2018-Jan-18 20:30N 22°17' E 121°25'911.4
2018-Jan-18 19:43N 22°25' E 121°29'311.4
2018-Jan-18 19:28N 22°27' E 121°31'812.0
2018-Jan-18 18:47N 22°34' E 121°36'511.8
2018-Jan-18 18:23N 22°37' E 121°39'812.5
2018-Jan-18 17:47N 22°45' E 121°41'512.0
2018-Jan-18 17:22N 22°50' E 121°42'411.4
2018-Jan-18 16:59N 22°54' E 121°44'1811.8
2018-Jan-18 15:29N 23°10' E 121°52'911.7
2018-Jan-18 14:43N 23°19' E 121°55'2711.1
2018-Jan-18 12:14N 23°45' E 122°01'610.5
2018-Jan-18 11:42N 23°51' E 122°03'210.9
2018-Jan-18 11:29N 23°53' E 122°04'510.6
2018-Jan-18 11:00N 23°57' E 122°06'510.9
2018-Jan-18 10:30N 24°03' E 122°08'510.7
2018-Jan-18 10:00N 24°08' E 122°10'510.3
2018-Jan-18 09:30N 24°13' E 122°11'510.0
2018-Jan-18 09:00N 24°18' E 122°12'510.0
2018-Jan-18 08:30N 24°22' E 122°13'510.5
2018-Jan-18 08:00N 24°27' E 122°15'510.6
2018-Jan-18 07:30N 24°33' E 122°16'510.2
2018-Jan-18 07:00N 24°37' E 122°20'510.7
2018-Jan-18 06:30N 24°42' E 122°21'510.6
2018-Jan-18 06:00N 24°47' E 122°23'510.9
2018-Jan-18 05:30N 24°52' E 122°24'510.5
2018-Jan-18 05:00N 24°57' E 122°25'510.1
2018-Jan-18 04:30N 25°02' E 122°27'510.0
2018-Jan-18 04:00N 25°07' E 122°28'610.1
2018-Jan-18 03:27N 25°12' E 122°30'  
Track history (hours):
 
Tides and Currents Weather Stations Pressure Air Temp Water Temp Dewpoint Dewpoint Depression Visibility Wind Speed Wind Dir Waves Ship Positions

New Century

Last reported at 2018-Jan-26 19:12 UTC. Time now 2018-Feb-19 22:09 UTC.
Position N 01°15' E 103°23'.
Warning: this ship's position is 24 days out of date.

Length 330 m; draft 11 m.

Type: Tanker. MMSI: 636012275.

Date/timePositionNaut miles runAvg speedWind from/ knotsBaromVisibWave heightAir tempDewpointWater temp
2018-Jan-26 19:12N 01°15' E 103°23'314.0
2018-Jan-26 19:00N 01°14' E 103°25'714.2
2018-Jan-26 18:30N 01°12' E 103°32'713.5
2018-Jan-26 17:58N 01°11' E 103°39'611.9
2018-Jan-26 17:30N 01°08' E 103°44'712.7
2018-Jan-26 16:56N 01°11' E 103°50'510.0
2018-Jan-26 16:29N 01°14' E 103°54'1 2.2
2018-Jan-26 16:00N 01°15' E 103°55'0 0.3
2018-Jan-26 15:21N 01°15' E 103°54'0 0.0
2018-Jan-26 14:57N 01°15' E 103°54'0 0.0
2018-Jan-26 13:36N 01°15' E 103°54'0 0.1
2018-Jan-26 13:30N 01°15' E 103°54'0 0.1
2018-Jan-26 12:57N 01°15' E 103°55'0 0.1
2018-Jan-26 12:30N 01°15' E 103°54'0 0.0
2018-Jan-26 11:48N 01°15' E 103°54'0 0.1
2018-Jan-26 11:15N 01°15' E 103°55'0 0.0
2018-Jan-26 10:57N 01°15' E 103°55'0 0.0
2018-Jan-26 09:06N 01°15' E 103°54'0 0.0
2018-Jan-26 08:57N 01°15' E 103°54'0 0.1
2018-Jan-26 05:29N 01°15' E 103°55'0 0.0
2018-Jan-26 04:44N 01°15' E 103°55'0 0.2
2018-Jan-26 04:23N 01°15' E 103°55'0 0.2
2018-Jan-26 03:56N 01°15' E 103°55'0 0.2
2018-Jan-26 03:17N 01°15' E 103°55'0 0.0
2018-Jan-26 02:47N 01°15' E 103°55'0 0.0
2018-Jan-26 01:44N 01°15' E 103°55'0 0.2
2018-Jan-26 01:17N 01°15' E 103°55'0 0.2
2018-Jan-26 00:53N 01°15' E 103°55'0 0.1
2018-Jan-25 23:44N 01°15' E 103°55'0 0.0
2018-Jan-25 22:38N 01°15' E 103°55'0 0.0
2018-Jan-25 21:35N 01°15' E 103°55'0 0.0
2018-Jan-25 21:29N 01°15' E 103°55'0 0.0
2018-Jan-25 20:53N 01°15' E 103°55'0 0.1
2018-Jan-25 20:26N 01°15' E 103°54'0 0.0
2018-Jan-25 19:47N 01°15' E 103°54'0 0.0
2018-Jan-25 19:26N 01°15' E 103°54'0 0.0
2018-Jan-25 18:50N 01°15' E 103°54'0 0.0
2018-Jan-25 18:29N 01°15' E 103°54'0 0.0
2018-Jan-25 17:56N 01°15' E 103°54'0 0.0
2018-Jan-25 17:14N 01°15' E 103°54'0 0.0
2018-Jan-25 16:53N 01°15' E 103°54'0 0.1
2018-Jan-25 16:17N 01°15' E 103°55'0 0.0
2018-Jan-25 15:56N 01°15' E 103°55'0 0.0
2018-Jan-25 14:56N 01°15' E 103°55'0 0.0
2018-Jan-25 14:23N 01°15' E 103°55'0 0.0
2018-Jan-25 12:38N 01°15' E 103°54'0 0.0
2018-Jan-25 12:17N 01°15' E 103°54'0 0.0
2018-Jan-25 11:59N 01°15' E 103°54'0 0.0
2018-Jan-25 10:53N 01°15' E 103°54'0 0.1
2018-Jan-25 10:26N 01°15' E 103°54'0 0.2
2018-Jan-25 09:56N 01°15' E 103°54'0 0.1
2018-Jan-25 09:29N 01°15' E 103°54'0 0.1
2018-Jan-25 08:59N 01°15' E 103°54'0 0.2
2018-Jan-25 08:29N 01°15' E 103°55'0 0.0
2018-Jan-25 07:56N 01°15' E 103°55'0 0.2
2018-Jan-25 07:29N 01°15' E 103°54'0 0.0
2018-Jan-25 06:59N 01°15' E 103°54'0 0.0
2018-Jan-25 06:26N 01°15' E 103°54'0 0.1
2018-Jan-25 05:59N 01°15' E 103°54'0 0.1
2018-Jan-25 05:23N 01°15' E 103°54'0 0.1
2018-Jan-25 04:59N 01°15' E 103°54'0 0.0
2018-Jan-25 04:26N 01°15' E 103°54'0 0.0
2018-Jan-25 03:59N 01°15' E 103°54'0 0.0
2018-Jan-25 03:29N 01°15' E 103°54'0 0.1
2018-Jan-25 02:56N 01°15' E 103°55'0 0.0
2018-Jan-25 02:29N 01°15' E 103°55'0 0.1
2018-Jan-25 02:00N 01°15' E 103°55'0 0.0
2018-Jan-25 01:23N 01°15' E 103°55'0 0.0
2018-Jan-25 00:59N 01°15' E 103°55'0 0.1
2018-Jan-25 00:29N 01°15' E 103°55'0 0.7
2018-Jan-25 00:00N 01°14' E 103°55'3 5.7
2018-Jan-24 23:30N 01°15' E 103°57'2 3.6
2018-Jan-24 23:01N 01°16' E 103°59'2 4.8
2018-Jan-24 22:30N 01°16' E 104°02'4 8.1
2018-Jan-24 22:00N 01°16' E 104°06'4 8.9
2018-Jan-24 21:30N 01°17' E 104°10'5 9.4
2018-Jan-24 20:59N 01°17' E 104°15'8 9.8
2018-Jan-24 20:09N 01°21' E 104°22'210.9
2018-Jan-24 19:57N 01°22' E 104°24'  
2018-Jan-18 22:27N 21°56' E 121°15'511.4
2018-Jan-18 22:00N 22°01' E 121°17'612.2
2018-Jan-18 21:29N 22°06' E 121°20'611.6
2018-Jan-18 20:57N 22°12' E 121°23'511.6
2018-Jan-18 20:30N 22°17' E 121°25'911.4
2018-Jan-18 19:43N 22°25' E 121°29'311.4
2018-Jan-18 19:28N 22°27' E 121°31'812.0
2018-Jan-18 18:47N 22°34' E 121°36'511.8
2018-Jan-18 18:23N 22°37' E 121°39'812.5
2018-Jan-18 17:47N 22°45' E 121°41'512.0
2018-Jan-18 17:22N 22°50' E 121°42'411.4
2018-Jan-18 16:59N 22°54' E 121°44'1811.8
2018-Jan-18 15:29N 23°10' E 121°52'911.7
2018-Jan-18 14:43N 23°19' E 121°55'2711.1
2018-Jan-18 12:14N 23°45' E 122°01'610.5
2018-Jan-18 11:42N 23°51' E 122°03'210.9
2018-Jan-18 11:29N 23°53' E 122°04'510.6
2018-Jan-18 11:00N 23°57' E 122°06'510.9
2018-Jan-18 10:30N 24°03' E 122°08'510.7
2018-Jan-18 10:00N 24°08' E 122°10'510.3
2018-Jan-18 09:30N 24°13' E 122°11'510.0
2018-Jan-18 09:00N 24°18' E 122°12'510.0
2018-Jan-18 08:30N 24°22' E 122°13'510.5
2018-Jan-18 08:00N 24°27' E 122°15'510.6
2018-Jan-18 07:30N 24°33' E 122°16'510.2
2018-Jan-18 07:00N 24°37' E 122°20'510.7
2018-Jan-18 06:30N 24°42' E 122°21'510.6
2018-Jan-18 06:00N 24°47' E 122°23'510.9
2018-Jan-18 05:30N 24°52' E 122°24'510.5
2018-Jan-18 05:00N 24°57' E 122°25'510.1
2018-Jan-18 04:30N 25°02' E 122°27'510.0
2018-Jan-18 04:00N 25°07' E 122°28'610.1
2018-Jan-18 03:27N 25°12' E 122°30'  

Dump ship's entire track history